EDT,Max TemperatureF,Mean TemperatureF,Min TemperatureF,Max Dew PointF,MeanDew PointF,Min DewpointF,Max Humidity, Mean Humidity, Min Humidity, Max Sea Level PressureIn, Mean Sea Level PressureIn, Min Sea Level PressureIn, Max VisibilityMiles, Mean VisibilityMiles, Min VisibilityMiles, Max Wind SpeedMPH, Mean Wind SpeedMPH, Max Gust SpeedMPH,PrecipitationIn, CloudCover, Events, WindDirDegrees
2012-10-1,62,58,54,59,54,46,97,79,60,29.85,29.72,29.62,10,8,1,18,8,25,0.43,6,Rain,65
2012-10-2,73,65,57,65,60,56,100,84,68,29.93,29.74,29.62,10,9,2,16,6,21,0.00,6,,200
2012-10-3,73,63,53,57,53,52,93,71,49,30.15,30.05,29.92,10,9,5,15,6,20,0.00,2,,208
2012-10-4,76,64,51,59,55,50,96,73,50,30.24,30.19,30.16,10,10,8,15,5,18,0.00,0,,215
2012-10-5,77,62,46,61,57,46,93,74,54,30.17,30.06,29.94,10,9,6,20,7,25,0.02,3,,220
2012-10-6,59,50,40,45,38,28,96,65,33,30.18,30.10,30.02,10,10,7,17,5,24,0.08,5,Rain,322
2012-10-7,56,48,39,40,37,33,85,66,46,30.20,30.15,30.11,10,10,10,13,3,18,0.00,5,,315
2012-10-8,57,48,39,39,37,35,92,70,47,30.26,30.20,30.14,10,10,10,7,1,9,0.00,2,,87
2012-10-9,62,48,33,43,37,32,100,73,46,30.19,30.13,30.00,10,6,0,13,4,17,0.00,1,Fog,159
2012-10-10,59,47,34,46,39,31,92,65,38,30.26,30.10,29.98,10,10,10,17,7,25,0.00,3,,263
2012-10-11,63,46,29,40,33,28,100,67,34,30.32,30.27,30.20,10,10,10,12,2,15,0.00,0,,167
2012-10-12,68,53,38,44,41,37,92,67,42,30.33,30.29,30.22,10,10,10,10,3,13,0.00,2,,51
2012-10-13,75,58,41,61,50,38,89,71,53,30.31,30.19,30.06,10,10,10,17,7,22,0.00,2,,165
2012-10-14,73,67,60,62,57,53,97,79,61,30.03,29.90,29.75,10,10,10,35,13,47,0.10,6,,194
2012-10-15,63,52,41,59,45,38,97,70,43,29.98,29.91,29.82,10,10,9,15,7,24,T,3,,268
2012-10-16,68,52,35,43,40,34,100,70,40,30.03,29.93,29.83,10,10,10,12,4,16,0.00,0,,156
2012-10-17,76,63,49,51,46,41,86,61,36,29.84,29.74,29.58,10,10,10,21,10,26,0.00,0,,175
2012-10-18,66,58,49,54,44,29,93,60,26,29.71,29.65,29.53,10,10,5,23,10,30,0.18,4,Rain-Thunderstorm,218
2012-10-19,58,52,46,43,39,34,86,67,47,29.77,29.67,29.62,10,10,10,24,9,31,0.03,6,Rain,213
2012-10-20,52,46,40,45,42,38,96,84,71,30.02,29.89,29.78,10,10,9,14,5,18,0.00,7,,237
2012-10-21,69,54,38,48,45,37,100,73,45,30.15,30.09,30.01,10,9,4,12,3,21,0.00,2,,155
2012-10-22,77,63,49,53,49,45,83,63,43,30.16,30.10,30.05,10,10,10,16,6,20,0.00,3,,182
2012-10-23,79,65,51,52,48,45,77,55,32,30.12,30.06,30.01,10,10,10,17,6,24,0.00,1,,204
2012-10-24,78,65,51,56,51,48,83,63,42,30.15,30.08,30.04,10,10,10,13,4,16,0.00,1,,188
2012-10-25,78,63,47,56,50,44,86,64,42,30.08,30.01,29.96,10,10,10,17,5,23,0.00,0,,189
2012-10-26,67,56,45,54,47,44,93,78,63,30.13,30.08,29.97,10,9,2,17,7,23,0.33,6,Rain,343
2012-10-27,50,47,43,45,42,37,100,81,61,30.12,30.08,30.04,10,8,2,15,8,23,0.24,8,Rain,1
2012-10-28,49,46,43,37,35,31,76,66,56,30.06,30.04,30.01,10,10,10,20,9,24,0.00,8,,355
2012-10-29,48,41,34,33,27,18,75,53,31,30.05,29.97,29.79,10,10,10,23,13,32,T,4,,325
2012-10-30,44,41,38,37,35,28,92,73,53,29.75,29.67,29.61,10,8,5,23,12,33,0.41,8,Rain,288
2012-10-31,48,44,39,36,32,30,85,68,50,29.87,29.79,29.73,10,10,10,14,7,21,0.01,8,Rain,281